createdAt,value
2022-08-27T00:00:37.163Z,21.97
2022-08-27T00:01:39.739Z,21.97
2022-08-27T00:02:43.210Z,21.90
2022-08-27T00:03:46.106Z,21.98
2022-08-27T00:04:48.065Z,21.98
2022-08-27T00:05:49.985Z,21.99
2022-08-27T00:06:51.896Z,21.90
2022-08-27T00:07:55.694Z,21.92
2022-08-27T00:08:58.501Z,21.86
2022-08-27T00:10:00.305Z,21.88
2022-08-27T00:11:02.379Z,21.87
2022-08-27T00:12:05.780Z,21.78
2022-08-27T00:13:07.769Z,21.78
2022-08-27T00:14:09.545Z,21.85
2022-08-27T00:15:12.465Z,21.82
2022-08-27T00:16:20.855Z,21.81
2022-08-27T00:17:22.700Z,21.79
2022-08-27T00:18:24.556Z,21.78
2022-08-27T00:19:26.488Z,21.71
2022-08-27T00:20:28.614Z,21.81
2022-08-27T00:21:30.690Z,21.80
2022-08-27T00:22:32.589Z,21.79
2022-08-27T00:23:36.296Z,21.81
2022-08-27T00:24:48.708Z,21.77
2022-08-27T00:25:50.970Z,21.59
2022-08-27T00:26:54.005Z,21.63
2022-08-27T00:27:55.803Z,21.65
2022-08-27T00:28:57.791Z,21.51
2022-08-27T00:30:00.258Z,21.54
2022-08-27T00:31:02.591Z,21.42
2022-08-27T00:32:04.619Z,21.30
2022-08-27T00:33:06.438Z,21.30
2022-08-27T00:34:08.502Z,21.35
2022-08-27T00:35:16.291Z,21.21
2022-08-27T00:36:18.355Z,21.36
2022-08-27T00:37:20.517Z,21.40
2022-08-27T00:38:23.544Z,21.38
2022-08-27T00:39:25.352Z,21.41
2022-08-27T00:40:27.662Z,21.43
2022-08-27T00:41:29.471Z,21.29
2022-08-27T00:42:31.281Z,21.43
2022-08-27T00:43:57.592Z,21.33
2022-08-27T00:44:59.917Z,21.19
2022-08-27T00:46:10.655Z,21.25
2022-08-27T00:47:17.052Z,21.28
2022-08-27T00:48:21.926Z,21.30
2022-08-27T00:49:46.017Z,21.31
2022-08-27T00:50:52.695Z,21.26
2022-08-27T00:52:06.468Z,21.21
2022-08-27T00:53:12.578Z,21.32
2022-08-27T00:54:18.686Z,21.29
2022-08-27T00:55:28.747Z,21.34
2022-08-27T00:56:36.066Z,21.24
2022-08-27T00:57:40.869Z,21.26
2022-08-27T00:58:46.128Z,21.27
2022-08-27T00:59:48.596Z,21.28
2022-08-27T01:00:50.662Z,21.30
2022-08-27T01:02:11.171Z,21.23
2022-08-27T01:03:14.084Z,21.26
2022-08-27T01:04:16.081Z,21.28
2022-08-27T01:05:22.214Z,21.25
2022-08-27T01:06:29.745Z,21.13
2022-08-27T01:07:36.498Z,21.22
2022-08-27T01:08:42.560Z,21.14
2022-08-27T01:09:46.766Z,21.19
2022-08-27T01:10:54.064Z,21.18
2022-08-27T01:11:58.178Z,21.05
2022-08-27T01:13:00.560Z,20.97
2022-08-27T01:14:04.998Z,20.98
2022-08-27T01:15:12.045Z,21.04
2022-08-27T01:16:21.007Z,21.06
2022-08-27T01:17:25.212Z,21.00
2022-08-27T01:18:28.936Z,21.03
2022-08-27T01:19:36.285Z,21.01
2022-08-27T01:20:51.748Z,21.00
2022-08-27T01:22:21.729Z,20.88
2022-08-27T01:23:48.728Z,20.89
2022-08-27T01:24:52.999Z,20.94
2022-08-27T01:25:55.141Z,20.93
2022-08-27T01:26:59.259Z,21.00
2022-08-27T01:28:03.486Z,20.93
2022-08-27T01:29:05.542Z,20.86
2022-08-27T01:30:10.297Z,21.06
2022-08-27T01:31:13.522Z,21.07
2022-08-27T01:32:24.354Z,21.06
2022-08-27T01:33:26.164Z,21.07
2022-08-27T01:34:28.015Z,21.13
2022-08-27T01:35:29.972Z,21.14
2022-08-27T01:36:32.954Z,21.14
2022-08-27T01:37:35.402Z,21.19
2022-08-27T01:38:37.164Z,21.20
2022-08-27T01:39:40.790Z,21.21
2022-08-27T01:40:42.849Z,21.22
2022-08-27T01:41:46.971Z,21.21
2022-08-27T01:42:56.853Z,21.20
2022-08-27T01:43:58.658Z,21.20
2022-08-27T01:45:10.995Z,21.17
2022-08-27T01:46:13.041Z,21.16
2022-08-27T01:47:16.031Z,21.14
2022-08-27T01:48:22.034Z,21.16
2022-08-27T01:49:23.805Z,21.15
2022-08-27T01:50:32.166Z,21.13
2022-08-27T01:51:34.758Z,21.17
2022-08-27T01:52:37.154Z,21.06
2022-08-27T01:53:38.948Z,21.08
2022-08-27T01:54:40.984Z,21.13
2022-08-27T01:55:48.139Z,21.12
2022-08-27T01:56:50.291Z,20.98
2022-08-27T01:57:53.423Z,21.00
2022-08-27T01:58:55.220Z,20.93
2022-08-27T01:59:58.241Z,20.92
2022-08-27T02:01:10.609Z,20.96
2022-08-27T02:02:16.767Z,20.97
2022-08-27T02:03:19.341Z,20.96
2022-08-27T02:04:21.764Z,20.93
2022-08-27T02:05:26.285Z,20.98
2022-08-27T02:06:28.079Z,20.99
2022-08-27T02:07:29.858Z,20.97
2022-08-27T02:08:32.384Z,20.96
2022-08-27T02:09:34.221Z,20.96
2022-08-27T02:10:38.854Z,20.86
2022-08-27T02:11:45.092Z,20.86
2022-08-27T02:12:47.248Z,20.96
2022-08-27T02:13:49.381Z,20.85
2022-08-27T02:14:52.045Z,20.87
2022-08-27T02:15:54.341Z,20.86
2022-08-27T02:16:56.644Z,20.88
2022-08-27T02:17:58.498Z,20.83
2022-08-27T02:19:00.567Z,20.77
2022-08-27T02:20:02.685Z,20.71
2022-08-27T02:21:05.317Z,20.65
2022-08-27T02:22:07.344Z,20.67
2022-08-27T02:23:09.324Z,20.60
2022-08-27T02:24:11.342Z,20.69
2022-08-27T02:25:14.156Z,20.73
2022-08-27T02:26:15.999Z,20.72
2022-08-27T02:27:18.603Z,20.69
2022-08-27T02:28:20.530Z,20.68
2022-08-27T02:29:23.413Z,20.66
2022-08-27T02:30:25.447Z,20.67
2022-08-27T02:31:27.394Z,20.70
2022-08-27T02:32:31.791Z,20.70
2022-08-27T02:33:34.190Z,20.57
2022-08-27T02:34:35.982Z,20.66
2022-08-27T02:35:44.066Z,20.67
2022-08-27T02:36:46.480Z,20.70
2022-08-27T02:37:48.976Z,20.59
2022-08-27T02:38:51.367Z,20.67
2022-08-27T02:39:53.417Z,20.65
2022-08-27T02:40:55.407Z,20.64
2022-08-27T02:41:57.202Z,20.54
2022-08-27T02:42:59.046Z,20.52
2022-08-27T02:44:01.514Z,20.60
2022-08-27T02:45:03.462Z,20.47
2022-08-27T02:46:05.509Z,20.62
2022-08-27T02:47:07.378Z,20.62
2022-08-27T02:48:09.358Z,20.63
2022-08-27T02:49:11.343Z,20.61
2022-08-27T02:50:14.845Z,20.64
2022-08-27T02:51:16.684Z,20.55
2022-08-27T02:52:25.030Z,20.65
2022-08-27T02:53:27.405Z,20.59
2022-08-27T02:54:30.294Z,20.52
2022-08-27T02:55:33.412Z,20.59
2022-08-27T02:56:35.575Z,20.55
2022-08-27T02:57:37.434Z,20.52
2022-08-27T02:58:41.075Z,20.55
2022-08-27T02:59:42.881Z,20.54
2022-08-27T03:00:45.319Z,20.53
2022-08-27T03:01:47.800Z,20.19
2022-08-27T03:02:50.062Z,20.44
2022-08-27T03:03:52.695Z,20.33
2022-08-27T03:04:54.512Z,20.44
2022-08-27T03:05:58.325Z,20.41
2022-08-27T03:07:00.620Z,20.41
2022-08-27T03:08:03.781Z,20.34
2022-08-27T03:09:05.956Z,20.43
2022-08-27T03:10:10.058Z,20.43
2022-08-27T03:11:12.871Z,20.43
2022-08-27T03:12:16.183Z,20.43
2022-08-27T03:13:18.936Z,20.42
2022-08-27T03:14:20.834Z,20.28
2022-08-27T03:15:22.758Z,20.41
2022-08-27T03:16:24.973Z,20.09
2022-08-27T03:17:45.543Z,20.38
2022-08-27T03:18:47.390Z,20.32
2022-08-27T03:19:50.875Z,20.38
2022-08-27T03:20:55.910Z,20.39
2022-08-27T03:21:57.678Z,20.35
2022-08-27T03:23:00.663Z,20.32
2022-08-27T03:24:11.402Z,20.19
2022-08-27T03:25:14.060Z,20.24
2022-08-27T03:26:17.006Z,20.17
2022-08-27T03:27:18.802Z,20.10
2022-08-27T03:28:23.877Z,20.06
2022-08-27T03:29:25.765Z,20.06
2022-08-27T03:30:27.857Z,19.96
2022-08-27T03:31:29.683Z,20.14
2022-08-27T03:32:31.633Z,20.10
2022-08-27T03:33:40.585Z,20.14
2022-08-27T03:34:42.615Z,20.17
2022-08-27T03:35:45.689Z,20.15
2022-08-27T03:36:50.466Z,20.17
2022-08-27T03:37:52.304Z,20.14
2022-08-27T03:38:54.502Z,20.20
2022-08-27T03:39:56.329Z,20.19
2022-08-27T03:40:58.140Z,20.16
2022-08-27T03:41:59.921Z,20.17
2022-08-27T03:43:01.855Z,20.19
2022-08-27T03:44:04.419Z,20.21
2022-08-27T03:45:07.916Z,20.22
2022-08-27T03:46:10.443Z,20.17
2022-08-27T03:47:12.250Z,20.11
2022-08-27T03:48:14.904Z,20.04
2022-08-27T03:49:20.696Z,20.08
2022-08-27T03:50:23.230Z,20.06
2022-08-27T03:51:25.419Z,19.98
2022-08-27T03:52:28.820Z,20.09
2022-08-27T03:53:30.734Z,20.07
2022-08-27T03:54:36.263Z,20.07
2022-08-27T03:55:38.045Z,20.14
2022-08-27T03:56:41.770Z,20.18
2022-08-27T03:57:43.603Z,20.07
2022-08-27T03:58:45.402Z,20.20
2022-08-27T03:59:47.323Z,20.21
2022-08-27T04:00:49.165Z,20.21
2022-08-27T04:01:50.954Z,20.23
2022-08-27T04:02:53.641Z,20.27
2022-08-27T04:03:55.471Z,20.29
2022-08-27T04:04:58.019Z,20.31
2022-08-27T04:06:00.260Z,20.27
2022-08-27T04:07:02.158Z,20.27
2022-08-27T04:08:04.068Z,20.33
2022-08-27T04:09:06.067Z,20.33
2022-08-27T04:10:09.653Z,20.32
2022-08-27T04:11:11.924Z,20.36
2022-08-27T04:12:13.729Z,20.27
2022-08-27T04:13:16.323Z,20.41
2022-08-27T04:14:24.826Z,20.44
2022-08-27T04:15:30.100Z,20.48
2022-08-27T04:16:33.827Z,20.50
2022-08-27T04:17:35.783Z,20.45
2022-08-27T04:18:37.628Z,20.50
2022-08-27T04:19:39.427Z,20.38
2022-08-27T04:20:41.637Z,20.31
2022-08-27T04:21:43.731Z,20.41
2022-08-27T04:22:45.528Z,20.53
2022-08-27T04:23:47.328Z,20.56
2022-08-27T04:24:49.309Z,20.59
2022-08-27T04:25:51.099Z,20.61
2022-08-27T04:26:52.929Z,20.65
2022-08-27T04:27:54.712Z,20.61
2022-08-27T04:28:58.204Z,20.74
2022-08-27T04:30:01.082Z,20.81
2022-08-27T04:31:04.090Z,20.88
2022-08-27T04:32:06.004Z,20.94
2022-08-27T04:33:08.098Z,20.99
2022-08-27T04:34:09.937Z,21.02
2022-08-27T04:35:11.990Z,21.07
2022-08-27T04:36:14.647Z,21.25
2022-08-27T04:37:16.874Z,21.32
2022-08-27T04:38:25.223Z,21.51
2022-08-27T04:39:28.548Z,21.62
2022-08-27T04:40:50.470Z,21.72
2022-08-27T04:41:55.657Z,21.89
2022-08-27T04:42:57.630Z,21.99
2022-08-27T04:44:04.705Z,22.10
2022-08-27T04:45:07.079Z,22.23
2022-08-27T04:46:09.279Z,22.35
2022-08-27T04:47:11.128Z,22.49
2022-08-27T04:48:15.490Z,22.63
2022-08-27T04:49:17.718Z,22.69
2022-08-27T04:50:19.935Z,22.80
2022-08-27T04:51:22.263Z,22.92
2022-08-27T04:52:24.275Z,23.15
2022-08-27T04:53:26.314Z,23.29
2022-08-27T04:54:32.405Z,23.47
2022-08-27T04:55:40.552Z,23.52
2022-08-27T04:56:42.654Z,23.79
2022-08-27T04:57:44.456Z,23.92
2022-08-27T04:58:46.283Z,24.16
2022-08-27T04:59:48.291Z,24.31
2022-08-27T05:00:56.423Z,24.46
2022-08-27T05:01:58.648Z,24.47
2022-08-27T05:03:00.493Z,24.71
2022-08-27T05:04:02.685Z,24.76
2022-08-27T05:05:05.076Z,24.89
2022-08-27T05:06:07.450Z,24.89
2022-08-27T05:07:10.642Z,25.13
2022-08-27T05:08:13.307Z,25.14
2022-08-27T05:09:16.208Z,25.33
2022-08-27T05:10:20.059Z,25.46
2022-08-27T05:11:23.839Z,25.52
2022-08-27T05:12:25.732Z,25.70
2022-08-27T05:13:29.031Z,25.84
2022-08-27T05:14:32.581Z,25.95
2022-08-27T05:15:35.306Z,26.04
2022-08-27T05:16:38.163Z,26.10
2022-08-27T05:17:40.009Z,26.10
2022-08-27T05:18:48.039Z,26.21
2022-08-27T05:19:50.589Z,26.28
2022-08-27T05:20:52.399Z,26.28
2022-08-27T05:21:54.405Z,26.23
2022-08-27T05:22:56.929Z,26.23
2022-08-27T05:24:01.392Z,26.18
2022-08-27T05:25:03.278Z,26.26
2022-08-27T05:26:07.556Z,26.24
2022-08-27T05:27:09.973Z,26.10
2022-08-27T05:28:16.943Z,26.13
2022-08-27T05:29:18.956Z,26.04
2022-08-27T05:30:21.131Z,26.05
2022-08-27T05:31:23.044Z,26.02
2022-08-27T05:32:24.879Z,25.96
2022-08-27T05:33:26.752Z,25.87
2022-08-27T05:34:30.091Z,25.84
2022-08-27T05:35:32.965Z,25.77
2022-08-27T05:36:35.845Z,25.72
2022-08-27T05:37:37.996Z,25.57
2022-08-27T05:38:39.858Z,25.64
2022-08-27T05:39:41.643Z,25.49
2022-08-27T05:40:44.116Z,25.55
2022-08-27T05:41:45.912Z,25.04
2022-08-27T05:42:51.108Z,25.37
2022-08-27T05:43:57.541Z,25.35
2022-08-27T05:45:00.925Z,25.30
2022-08-27T05:46:07.713Z,25.25
2022-08-27T05:47:10.314Z,25.20
2022-08-27T05:48:12.958Z,25.14
2022-08-27T05:49:15.039Z,25.11
2022-08-27T05:50:20.730Z,24.92
2022-08-27T05:51:34.244Z,25.08
2022-08-27T05:52:36.683Z,25.07
2022-08-27T05:53:39.520Z,24.98
2022-08-27T05:54:41.348Z,24.93
2022-08-27T05:55:45.631Z,24.97
2022-08-27T05:56:51.700Z,24.89
2022-08-27T05:57:53.494Z,24.88
2022-08-27T05:59:14.528Z,24.85
2022-08-27T06:00:35.905Z,24.86
2022-08-27T06:01:45.086Z,24.88
2022-08-27T06:02:47.006Z,25.00
2022-08-27T06:03:48.827Z,25.03
2022-08-27T06:04:50.747Z,25.18
2022-08-27T06:06:01.803Z,25.22
2022-08-27T06:07:03.761Z,25.18
2022-08-27T06:08:05.578Z,25.09
2022-08-27T06:09:08.799Z,24.96
2022-08-27T06:10:11.522Z,24.96
2022-08-27T06:11:13.556Z,24.92
2022-08-27T06:12:15.374Z,24.93
2022-08-27T06:13:17.211Z,24.73
2022-08-27T06:14:19.083Z,24.73
2022-08-27T06:15:20.932Z,24.54
2022-08-27T06:16:23.634Z,24.58
2022-08-27T06:17:25.449Z,24.58
2022-08-27T06:18:27.242Z,24.48
2022-08-27T06:19:29.302Z,24.39
2022-08-27T06:20:31.128Z,24.51
2022-08-27T06:21:33.671Z,24.54
2022-08-27T06:22:35.491Z,24.52
2022-08-27T06:23:37.954Z,24.70
2022-08-27T06:24:42.074Z,24.76
2022-08-27T06:25:43.979Z,24.83
2022-08-27T06:26:45.871Z,24.82
2022-08-27T06:27:47.656Z,24.63
2022-08-27T06:28:50.530Z,24.48
2022-08-27T06:29:52.313Z,24.44
2022-08-27T06:30:54.120Z,24.43
2022-08-27T06:31:56.603Z,24.54
2022-08-27T06:32:58.373Z,24.72
2022-08-27T06:34:07.277Z,24.94
2022-08-27T06:35:09.724Z,25.11
2022-08-27T06:36:14.526Z,25.20
2022-08-27T06:37:16.361Z,25.44
2022-08-27T06:38:18.143Z,25.71
2022-08-27T06:39:19.999Z,25.77
2022-08-27T06:40:23.428Z,25.74
2022-08-27T06:41:27.069Z,25.81
2022-08-27T06:42:28.849Z,26.00
2022-08-27T06:43:33.032Z,26.11
2022-08-27T06:44:34.880Z,26.23
2022-08-27T06:45:40.172Z,26.28
2022-08-27T06:46:43.150Z,26.34
2022-08-27T06:47:45.382Z,26.44
2022-08-27T06:48:48.077Z,26.96
2022-08-27T06:49:49.844Z,27.54
2022-08-27T06:50:51.653Z,28.15
2022-08-27T06:51:53.805Z,28.49
2022-08-27T06:52:55.656Z,28.84
2022-08-27T06:53:59.605Z,29.25
2022-08-27T06:55:01.516Z,29.57
2022-08-27T06:56:03.564Z,29.74
2022-08-27T06:57:05.403Z,30.03
2022-08-27T06:58:07.569Z,30.40
2022-08-27T06:59:12.412Z,30.75
2022-08-27T07:00:14.449Z,31.15
2022-08-27T07:01:22.902Z,31.37
2022-08-27T07:02:24.839Z,31.85
2022-08-27T07:03:26.687Z,32.14
2022-08-27T07:04:32.773Z,32.36
2022-08-27T07:05:37.172Z,32.61
2022-08-27T07:06:39.942Z,32.81
2022-08-27T07:07:46.712Z,33.17
2022-08-27T07:08:53.169Z,33.42
2022-08-27T07:09:55.600Z,33.71
2022-08-27T07:10:58.017Z,33.89
2022-08-27T07:12:00.952Z,34.09
2022-08-27T07:13:03.362Z,34.48
2022-08-27T07:14:06.492Z,34.70
2022-08-27T07:15:08.810Z,34.83
2022-08-27T07:16:14.253Z,34.92
2022-08-27T07:17:17.552Z,35.11
2022-08-27T07:18:19.327Z,35.37
2022-08-27T07:19:30.521Z,35.54
2022-08-27T07:20:33.264Z,35.70
2022-08-27T07:21:36.333Z,35.86
2022-08-27T07:22:42.944Z,36.07
2022-08-27T07:23:44.744Z,36.30
2022-08-27T07:24:46.816Z,36.49
2022-08-27T07:25:48.903Z,36.73
2022-08-27T07:26:50.711Z,36.86
2022-08-27T07:27:52.868Z,36.94
2022-08-27T07:28:54.664Z,36.94
2022-08-27T07:29:56.446Z,37.12
2022-08-27T07:30:58.301Z,37.14
2022-08-27T07:32:00.164Z,37.04
2022-08-27T07:33:01.989Z,36.89
2022-08-27T07:34:04.941Z,36.94
2022-08-27T07:35:09.890Z,36.97
2022-08-27T07:36:12.198Z,37.16
2022-08-27T07:37:15.169Z,37.25
2022-08-27T07:38:16.955Z,37.28
2022-08-27T07:39:18.847Z,37.46
2022-08-27T07:40:20.680Z,37.54
2022-08-27T07:41:22.467Z,37.66
2022-08-27T07:42:48.390Z,37.71
2022-08-27T07:44:08.434Z,37.94
2022-08-27T07:45:10.818Z,38.14
2022-08-27T07:46:12.662Z,38.16
2022-08-27T07:47:14.571Z,38.29
2022-08-27T07:48:16.639Z,38.32
2022-08-27T07:49:19.310Z,38.31
2022-08-27T07:50:23.795Z,38.22
2022-08-27T07:51:27.426Z,38.22
2022-08-27T07:52:29.268Z,38.23
2022-08-27T07:53:34.125Z,38.44
2022-08-27T07:54:35.963Z,38.53
2022-08-27T07:55:39.006Z,38.68
2022-08-27T07:56:40.911Z,38.84
2022-08-27T07:57:42.706Z,38.92
2022-08-27T07:58:45.355Z,39.00
2022-08-27T07:59:48.533Z,39.10
2022-08-27T08:00:50.311Z,39.23
2022-08-27T08:01:52.509Z,39.24
2022-08-27T08:02:54.556Z,39.33
2022-08-27T08:03:56.831Z,39.29
2022-08-27T08:04:58.755Z,39.33
2022-08-27T08:06:10.447Z,39.45
2022-08-27T08:07:12.513Z,39.30
2022-08-27T08:08:14.485Z,39.42
2022-08-27T08:09:16.384Z,39.49
2022-08-27T08:10:22.705Z,39.46
2022-08-27T08:11:24.557Z,39.64
2022-08-27T08:12:27.216Z,39.85
2022-08-27T08:13:29.096Z,39.96
2022-08-27T08:14:32.398Z,40.14
2022-08-27T08:15:35.042Z,40.24
2022-08-27T08:16:36.963Z,40.25
2022-08-27T08:17:38.913Z,40.37
2022-08-27T08:18:40.937Z,40.26
2022-08-27T08:19:53.490Z,40.21
2022-08-27T08:21:11.456Z,40.26
2022-08-27T08:22:13.244Z,40.12
2022-08-27T08:23:15.118Z,39.84
2022-08-27T08:24:18.495Z,39.73
2022-08-27T08:25:21.321Z,39.73
2022-08-27T08:26:24.081Z,39.68
2022-08-27T08:27:26.033Z,39.94
2022-08-27T08:28:30.341Z,40.13
2022-08-27T08:29:32.138Z,40.15
2022-08-27T08:30:35.493Z,40.24
2022-08-27T08:31:37.481Z,40.54
2022-08-27T08:32:39.535Z,40.71
2022-08-27T08:33:41.386Z,40.74
2022-08-27T08:34:44.328Z,40.76
2022-08-27T08:35:46.378Z,40.83
2022-08-27T08:36:54.501Z,41.05
2022-08-27T08:37:56.671Z,41.11
2022-08-27T08:38:59.154Z,40.83
2022-08-27T08:40:01.001Z,40.71
2022-08-27T08:41:04.182Z,40.74
2022-08-27T08:42:08.110Z,40.92
2022-08-27T08:43:26.925Z,41.14
2022-08-27T08:44:31.234Z,41.29
2022-08-27T08:45:36.536Z,41.54
2022-08-27T08:46:46.813Z,41.59
2022-08-27T08:47:57.278Z,41.36
2022-08-27T08:49:04.003Z,41.16
2022-08-27T08:50:11.218Z,40.83
2022-08-27T08:51:22.071Z,40.76
2022-08-27T08:52:43.783Z,40.96
2022-08-27T08:53:55.694Z,41.06
2022-08-27T08:55:07.049Z,41.03
2022-08-27T08:56:21.371Z,40.78
2022-08-27T08:57:31.082Z,40.57
2022-08-27T08:59:06.161Z,40.61
2022-08-27T09:00:14.329Z,40.59
2022-08-27T09:01:20.934Z,40.93
2022-08-27T09:02:23.021Z,41.14
2022-08-27T09:03:29.901Z,41.21
2022-08-27T09:04:31.797Z,41.16
2022-08-27T09:05:37.579Z,41.26
2022-08-27T09:06:56.433Z,41.35
2022-08-27T09:08:28.638Z,41.58
2022-08-27T09:09:31.931Z,41.62
2022-08-27T09:10:52.992Z,41.70
2022-08-27T09:12:15.536Z,41.87
2022-08-27T09:13:32.881Z,41.82
2022-08-27T09:14:41.641Z,41.82
2022-08-27T09:15:49.260Z,42.05
2022-08-27T09:16:51.184Z,42.11
2022-08-27T09:18:14.020Z,42.28
2022-08-27T09:19:16.511Z,42.33
2022-08-27T09:20:26.221Z,42.38
2022-08-27T09:21:51.743Z,42.40
2022-08-27T09:23:06.834Z,42.54
2022-08-27T09:24:18.444Z,42.59
2022-08-27T09:25:26.334Z,42.76
2022-08-27T09:26:33.591Z,42.67
2022-08-27T09:27:42.970Z,42.60
2022-08-27T09:29:03.419Z,42.72
2022-08-27T09:30:20.890Z,42.90
2022-08-27T09:31:23.226Z,43.05
2022-08-27T09:32:32.655Z,43.02
2022-08-27T09:33:44.398Z,42.96
2022-08-27T09:35:03.287Z,43.06
2022-08-27T09:36:09.984Z,42.77
2022-08-27T09:37:23.302Z,42.43
2022-08-27T09:38:36.944Z,41.82
2022-08-27T09:40:22.597Z,41.59
2022-08-27T09:41:33.320Z,41.76
2022-08-27T09:42:41.610Z,41.80
2022-08-27T09:44:07.357Z,42.13
2022-08-27T09:45:12.800Z,42.30
2022-08-27T09:46:21.600Z,42.59
2022-08-27T09:47:26.952Z,42.74
2022-08-27T09:48:31.525Z,42.91
2022-08-27T09:49:36.854Z,42.89
2022-08-27T09:50:57.072Z,42.03
2022-08-27T09:51:59.260Z,42.03
2022-08-27T09:53:01.548Z,42.32
2022-08-27T09:54:04.506Z,42.40
2022-08-27T09:55:07.258Z,42.57
2022-08-27T09:56:11.268Z,42.78
2022-08-27T09:57:26.339Z,42.91
2022-08-27T09:58:47.745Z,42.85
2022-08-27T09:59:54.850Z,42.84
2022-08-27T10:01:17.188Z,42.82
2022-08-27T10:02:22.332Z,42.95
2022-08-27T10:03:24.161Z,43.07
2022-08-27T10:04:51.533Z,43.15
2022-08-27T10:05:54.756Z,43.16
2022-08-27T10:06:56.641Z,42.93
2022-08-27T10:08:04.853Z,42.96
2022-08-27T10:09:18.947Z,43.15
2022-08-27T10:10:37.501Z,43.12
2022-08-27T10:11:55.238Z,43.23
2022-08-27T10:13:10.095Z,43.10
2022-08-27T10:14:20.386Z,42.51
2022-08-27T10:15:29.790Z,42.65
2022-08-27T10:17:20.701Z,42.90
2022-08-27T10:18:45.014Z,42.83
2022-08-27T10:19:58.502Z,42.25
2022-08-27T10:21:42.195Z,42.08
2022-08-27T10:23:07.842Z,41.79
2022-08-27T10:24:35.507Z,41.67
2022-08-27T10:25:47.283Z,41.84
2022-08-27T10:27:08.494Z,41.86
2022-08-27T10:28:26.696Z,41.10
2022-08-27T10:29:43.213Z,41.41
2022-08-27T10:31:06.383Z,41.65
2022-08-27T10:32:25.651Z,41.97
2022-08-27T10:33:46.814Z,42.21
2022-08-27T10:35:05.572Z,42.27
2022-08-27T10:36:19.504Z,42.40
2022-08-27T10:37:45.960Z,42.59
2022-08-27T10:39:06.683Z,42.75
2022-08-27T10:40:09.346Z,42.81
2022-08-27T10:41:14.049Z,42.87
2022-08-27T10:42:26.508Z,43.03
2022-08-27T10:44:02.062Z,43.23
2022-08-27T10:45:11.402Z,42.83
2022-08-27T10:46:31.751Z,42.71
2022-08-27T10:47:44.658Z,42.85
2022-08-27T10:49:01.484Z,43.03
2022-08-27T10:50:27.616Z,43.19
2022-08-27T10:51:44.009Z,43.22
2022-08-27T10:52:51.696Z,43.14
2022-08-27T10:54:10.569Z,42.82
2022-08-27T10:55:18.349Z,42.51
2022-08-27T10:56:33.358Z,42.60
2022-08-27T10:57:56.820Z,42.80
2022-08-27T10:59:21.703Z,42.97
2022-08-27T11:00:25.430Z,42.67
2022-08-27T11:01:48.409Z,42.64
2022-08-27T11:03:01.344Z,42.53
2022-08-27T11:04:13.443Z,41.92
2022-08-27T11:05:24.794Z,41.83
2022-08-27T11:06:43.158Z,41.99
2022-08-27T11:08:02.114Z,41.82
2022-08-27T11:09:10.598Z,41.39
2022-08-27T11:10:29.398Z,41.32
2022-08-27T11:13:13.619Z,41.25
2022-08-27T11:14:25.387Z,41.21
2022-08-27T11:15:29.107Z,40.61
2022-08-27T11:16:45.423Z,40.37
2022-08-27T11:17:59.851Z,40.42
2022-08-27T11:19:14.097Z,40.61
2022-08-27T11:20:25.188Z,40.73
2022-08-27T11:22:03.025Z,40.72
2022-08-27T11:23:34.273Z,41.01
2022-08-27T11:24:55.665Z,41.08
2022-08-27T11:26:01.591Z,41.25
2022-08-27T11:27:08.191Z,41.31
2022-08-27T11:28:11.929Z,41.33
2022-08-27T11:29:25.002Z,41.62
2022-08-27T11:30:30.228Z,41.39
2022-08-27T11:31:38.538Z,40.91
2022-08-27T11:32:46.630Z,40.95
2022-08-27T11:34:13.615Z,40.79
2022-08-27T11:35:46.893Z,40.69
2022-08-27T11:37:06.034Z,40.99
2022-08-27T11:38:38.526Z,41.09
2022-08-27T11:39:56.781Z,41.30
2022-08-27T11:41:17.123Z,41.20
2022-08-27T11:42:36.318Z,41.23
2022-08-27T11:43:38.369Z,40.97
2022-08-27T11:44:44.841Z,40.84
2022-08-27T11:46:01.852Z,40.72
2022-08-27T11:47:24.624Z,40.85
2022-08-27T11:48:36.190Z,40.75
2022-08-27T11:49:49.083Z,40.76
2022-08-27T11:51:26.093Z,40.33
2022-08-27T11:52:38.643Z,40.60
2022-08-27T11:53:57.489Z,40.66
2022-08-27T11:55:25.115Z,40.94
2022-08-27T11:56:29.906Z,41.01
2022-08-27T11:57:34.678Z,40.93
2022-08-27T11:58:53.361Z,40.93
2022-08-27T11:59:55.532Z,40.56
2022-08-27T12:01:03.746Z,40.66
2022-08-27T12:02:22.974Z,40.70
2022-08-27T12:03:32.607Z,40.88
2022-08-27T12:04:41.407Z,40.99
2022-08-27T12:05:49.207Z,41.11
2022-08-27T12:07:00.364Z,41.21
2022-08-27T12:08:22.080Z,40.04
2022-08-27T12:09:24.549Z,39.84
2022-08-27T12:10:40.554Z,39.20
2022-08-27T12:11:56.910Z,39.22
2022-08-27T12:13:42.011Z,38.64
2022-08-27T12:14:53.709Z,38.61
2022-08-27T12:16:00.294Z,38.69
2022-08-27T12:17:14.083Z,38.74
2022-08-27T12:18:27.868Z,38.42
2022-08-27T12:20:06.180Z,38.18
2022-08-27T12:21:20.046Z,38.12
2022-08-27T12:23:01.345Z,37.94
2022-08-27T12:24:21.085Z,37.98
2022-08-27T12:25:23.866Z,37.98
2022-08-27T12:26:25.615Z,38.16
2022-08-27T12:27:34.967Z,38.19
2022-08-27T12:28:36.823Z,38.35
2022-08-27T12:29:57.178Z,38.49
2022-08-27T12:30:59.166Z,38.29
2022-08-27T12:32:10.542Z,37.98
2022-08-27T12:33:23.703Z,37.69
2022-08-27T12:34:26.976Z,37.54
2022-08-27T12:35:45.804Z,37.67
2022-08-27T12:36:53.417Z,37.61
2022-08-27T12:38:10.637Z,37.59
2022-08-27T12:39:16.767Z,37.60
2022-08-27T12:40:25.903Z,37.64
2022-08-27T12:41:44.059Z,37.47
2022-08-27T12:42:46.753Z,37.71
2022-08-27T12:43:48.557Z,37.82
2022-08-27T12:44:58.200Z,37.85
2022-08-27T12:46:19.730Z,37.55
2022-08-27T12:47:21.773Z,37.32
2022-08-27T12:48:34.298Z,37.07
2022-08-27T12:49:59.496Z,36.80
2022-08-27T12:51:07.141Z,36.97
2022-08-27T12:52:38.207Z,37.03
2022-08-27T12:53:43.308Z,37.09
2022-08-27T12:54:54.049Z,37.15
2022-08-27T12:56:27.929Z,37.06
2022-08-27T12:57:54.144Z,37.08
2022-08-27T12:59:06.125Z,37.07
2022-08-27T13:00:19.302Z,37.14
2022-08-27T13:01:36.816Z,37.13
2022-08-27T13:03:18.631Z,37.02
2022-08-27T13:04:30.644Z,37.13
2022-08-27T13:05:48.192Z,37.30
2022-08-27T13:06:50.894Z,37.33
2022-08-27T13:07:55.519Z,37.45
2022-08-27T13:09:00.239Z,37.53
2022-08-27T13:10:15.428Z,37.49
2022-08-27T13:11:23.754Z,37.52
2022-08-27T13:12:26.029Z,37.43
2022-08-27T13:13:27.877Z,37.36
2022-08-27T13:14:38.118Z,37.19
2022-08-27T13:15:52.462Z,36.94
2022-08-27T13:16:57.781Z,36.91
2022-08-27T13:18:02.549Z,36.84
2022-08-27T13:19:07.225Z,36.78
2022-08-27T13:20:27.837Z,36.64
2022-08-27T13:21:33.142Z,36.75
2022-08-27T13:22:41.130Z,36.71
2022-08-27T13:23:57.192Z,36.61
2022-08-27T13:25:03.039Z,36.41
2022-08-27T13:26:10.734Z,36.45
2022-08-27T13:27:13.303Z,36.47
2022-08-27T13:28:17.246Z,36.47
2022-08-27T13:29:19.806Z,36.43
2022-08-27T13:30:35.228Z,36.52
2022-08-27T13:31:39.115Z,36.73
2022-08-27T13:32:41.365Z,36.83
2022-08-27T13:33:44.181Z,36.90
2022-08-27T13:34:46.208Z,36.80
2022-08-27T13:35:48.195Z,36.91
2022-08-27T13:36:56.223Z,37.04
2022-08-27T13:37:59.047Z,37.10
2022-08-27T13:39:06.142Z,37.17
2022-08-27T13:40:08.853Z,37.15
2022-08-27T13:41:20.458Z,37.05
2022-08-27T13:42:24.699Z,36.85
2022-08-27T13:43:40.058Z,36.64
2022-08-27T13:44:48.029Z,36.59
2022-08-27T13:45:52.698Z,36.67
2022-08-27T13:47:02.219Z,36.58
2022-08-27T13:48:05.859Z,36.31
2022-08-27T13:49:17.873Z,36.20
2022-08-27T13:50:29.235Z,36.22
2022-08-27T13:51:34.649Z,36.18
2022-08-27T13:53:12.624Z,36.35
2022-08-27T13:54:17.958Z,36.32
2022-08-27T13:55:19.808Z,36.13
2022-08-27T13:56:31.880Z,36.22
2022-08-27T13:57:44.606Z,36.04
2022-08-27T13:58:46.932Z,35.97
2022-08-27T13:59:48.740Z,36.13
2022-08-27T14:00:50.633Z,36.31
2022-08-27T14:02:10.585Z,36.18
2022-08-27T14:03:32.932Z,36.10
2022-08-27T14:04:41.141Z,36.25
2022-08-27T14:05:48.399Z,36.22
2022-08-27T14:06:51.206Z,36.36
2022-08-27T14:08:02.346Z,36.39
2022-08-27T14:09:16.442Z,36.44
2022-08-27T14:10:18.185Z,36.53
2022-08-27T14:11:25.976Z,36.61
2022-08-27T14:12:34.732Z,36.57
2022-08-27T14:13:46.942Z,36.56
2022-08-27T14:14:54.575Z,36.24
2022-08-27T14:16:00.231Z,36.25
2022-08-27T14:17:03.549Z,36.27
2022-08-27T14:18:08.647Z,36.24
2022-08-27T14:19:26.253Z,36.27
2022-08-27T14:20:28.906Z,36.20
2022-08-27T14:21:32.157Z,36.32
2022-08-27T14:22:34.607Z,36.32
2022-08-27T14:23:36.394Z,36.42
2022-08-27T14:24:38.171Z,36.34